createdAt,value
2023-02-25T00:01:40.143Z,6.83
2023-02-25T00:04:06.506Z,8.20
2023-02-25T00:06:32.985Z,7.30
2023-02-25T00:08:59.472Z,9.83
2023-02-25T00:11:26.734Z,7.50
2023-02-25T00:13:53.252Z,9.23
2023-02-25T00:16:22.560Z,8.37
2023-02-25T00:18:56.362Z,8.07
2023-02-25T00:21:24.507Z,7.77
2023-02-25T00:23:52.851Z,9.20
2023-02-25T00:26:20.970Z,8.10
2023-02-25T00:28:49.345Z,9.33
2023-02-25T00:31:22.473Z,8.23
2023-02-25T00:33:50.175Z,10.33
2023-02-25T00:36:20.353Z,7.93
2023-02-25T00:38:48.354Z,8.60
2023-02-25T00:41:18.237Z,7.03
2023-02-25T00:43:49.639Z,7.27
2023-02-25T00:46:16.733Z,10.20
2023-02-25T00:48:42.968Z,7.83
2023-02-25T00:51:15.254Z,9.13
2023-02-25T00:53:43.580Z,9.97
2023-02-25T00:56:16.037Z,8.80
2023-02-25T00:58:47.414Z,8.27
2023-02-25T01:01:20.029Z,9.20
2023-02-25T01:03:47.539Z,8.63
2023-02-25T01:06:15.506Z,9.73
2023-02-25T01:08:42.523Z,8.37
2023-02-25T01:11:20.388Z,7.93
2023-02-25T01:13:50.120Z,9.53
2023-02-25T01:16:22.223Z,9.50
2023-02-25T01:18:52.861Z,7.33
2023-02-25T01:21:25.269Z,9.30
2023-02-25T01:24:00.284Z,10.97
2023-02-25T01:26:29.220Z,8.33
2023-02-25T01:28:55.835Z,8.70
2023-02-25T01:31:24.262Z,11.17
2023-02-25T01:33:51.116Z,11.37
2023-02-25T01:36:17.668Z,11.03
2023-02-25T01:38:43.823Z,9.70
2023-02-25T01:41:10.362Z,7.87
2023-02-25T01:43:37.492Z,8.03
2023-02-25T01:46:04.065Z,8.00
2023-02-25T01:48:35.257Z,5.83
2023-02-25T01:51:10.551Z,8.87
2023-02-25T01:53:42.756Z,10.00
2023-02-25T01:56:11.771Z,8.87
2023-02-25T01:58:38.632Z,7.33
2023-02-25T02:01:10.249Z,5.83
2023-02-25T02:03:37.545Z,8.10
2023-02-25T02:06:37.778Z,7.00
2023-02-25T02:09:08.087Z,7.07
2023-02-25T02:11:35.000Z,7.97
2023-02-25T02:14:03.833Z,6.80
2023-02-25T02:16:58.810Z,7.87
2023-02-25T02:20:06.546Z,8.00
2023-02-25T02:23:04.268Z,6.27
2023-02-25T02:25:41.474Z,6.50
2023-02-25T02:28:21.446Z,6.77
2023-02-25T02:31:15.245Z,8.57
2023-02-25T02:33:51.769Z,8.17
2023-02-25T02:36:21.592Z,6.93
2023-02-25T02:38:57.713Z,7.97
2023-02-25T02:41:35.871Z,8.33
2023-02-25T02:44:15.653Z,7.93
2023-02-25T02:46:47.970Z,8.47
2023-02-25T02:49:24.600Z,8.23
2023-02-25T02:51:58.277Z,7.83
2023-02-25T02:54:36.890Z,6.93
2023-02-25T02:57:05.477Z,7.77
2023-02-25T02:59:42.223Z,9.07
2023-02-25T03:02:15.404Z,7.37
2023-02-25T03:04:44.709Z,8.20
2023-02-25T03:07:12.896Z,9.83
2023-02-25T03:09:46.591Z,10.17
2023-02-25T03:12:12.899Z,8.67
2023-02-25T03:14:39.921Z,9.13
2023-02-25T03:17:11.312Z,10.97
2023-02-25T03:20:00.569Z,8.47
2023-02-25T03:22:32.457Z,8.23
2023-02-25T03:25:11.995Z,7.80
2023-02-25T03:27:43.796Z,10.80
2023-02-25T03:30:23.988Z,7.40
2023-02-25T03:33:00.576Z,7.63
2023-02-25T03:35:29.639Z,9.50
2023-02-25T03:38:01.665Z,8.00
2023-02-25T03:40:30.768Z,8.53
2023-02-25T03:43:08.191Z,6.93
2023-02-25T03:45:38.902Z,7.97
2023-02-25T03:48:07.160Z,6.77
2023-02-25T03:50:39.878Z,10.73
2023-02-25T03:53:07.740Z,8.50
2023-02-25T03:55:54.020Z,7.57
2023-02-25T03:58:20.618Z,7.23
2023-02-25T04:00:52.068Z,7.30
2023-02-25T04:03:18.264Z,11.47
2023-02-25T04:05:44.904Z,8.73
2023-02-25T04:08:15.181Z,6.97
2023-02-25T04:10:43.596Z,6.80
2023-02-25T04:13:12.535Z,9.00
2023-02-25T04:15:39.476Z,7.37
2023-02-25T04:18:05.999Z,9.40
2023-02-25T04:20:33.428Z,8.33
2023-02-25T04:23:00.710Z,6.77
2023-02-25T04:25:27.782Z,7.67
2023-02-25T04:27:54.040Z,6.57
2023-02-25T04:30:20.629Z,7.27
2023-02-25T04:32:46.895Z,4.60
2023-02-25T04:35:13.563Z,4.70
2023-02-25T04:37:41.361Z,6.53
2023-02-25T04:40:13.718Z,5.90
2023-02-25T04:42:40.174Z,5.33
2023-02-25T04:45:09.603Z,3.87
2023-02-25T04:47:36.395Z,5.40
2023-02-25T04:50:07.046Z,4.60
2023-02-25T04:52:33.847Z,5.13
2023-02-25T04:55:00.287Z,4.80
2023-02-25T04:57:26.468Z,6.37
2023-02-25T04:59:52.987Z,4.47
2023-02-25T05:02:19.533Z,4.20
2023-02-25T05:04:46.129Z,3.47
2023-02-25T05:07:12.385Z,3.03
2023-02-25T05:09:38.835Z,1.93
2023-02-25T05:12:05.745Z,2.90
2023-02-25T05:14:33.132Z,2.03
2023-02-25T05:16:59.877Z,2.13
2023-02-25T05:19:26.754Z,1.67
2023-02-25T05:21:53.200Z,3.07
2023-02-25T05:24:22.856Z,1.60
2023-02-25T05:26:50.695Z,3.07
2023-02-25T05:29:17.396Z,2.70
2023-02-25T05:31:43.833Z,2.90
2023-02-25T05:34:11.117Z,2.53
2023-02-25T05:36:37.442Z,2.03
2023-02-25T05:39:05.551Z,2.73
2023-02-25T05:41:31.823Z,2.20
2023-02-25T05:43:58.465Z,2.77
2023-02-25T05:46:25.992Z,2.97
2023-02-25T05:48:52.831Z,2.33
2023-02-25T05:51:22.010Z,1.43
2023-02-25T05:53:49.631Z,1.77
2023-02-25T05:56:19.925Z,1.60
2023-02-25T05:58:47.651Z,1.53
2023-02-25T06:01:17.081Z,1.73
2023-02-25T06:03:45.591Z,1.40
2023-02-25T06:06:14.033Z,1.63
2023-02-25T06:08:44.098Z,1.20
2023-02-25T06:11:13.608Z,1.07
2023-02-25T06:13:41.379Z,1.43
2023-02-25T06:16:07.674Z,1.30
2023-02-25T06:18:36.313Z,1.00
2023-02-25T06:21:08.251Z,1.40
2023-02-25T06:23:36.778Z,0.93
2023-02-25T06:26:04.929Z,1.10
2023-02-25T06:28:31.960Z,1.20
2023-02-25T06:30:58.524Z,1.17
2023-02-25T06:33:25.554Z,1.80
2023-02-25T06:35:53.865Z,3.97
2023-02-25T06:38:21.027Z,1.57
2023-02-25T06:40:48.911Z,1.23
2023-02-25T06:43:18.494Z,1.07
2023-02-25T06:45:44.706Z,1.40
2023-02-25T06:48:11.267Z,1.30
2023-02-25T06:50:38.786Z,1.20
2023-02-25T06:53:06.129Z,1.23
2023-02-25T06:55:33.297Z,1.67
2023-02-25T06:58:01.503Z,1.30
2023-02-25T07:00:28.007Z,2.10
2023-02-25T07:02:56.959Z,1.40
2023-02-25T07:05:25.462Z,1.87
2023-02-25T07:07:51.969Z,2.50
2023-02-25T07:10:18.258Z,1.80
2023-02-25T07:12:46.695Z,1.67
2023-02-25T07:15:13.305Z,1.40
2023-02-25T07:17:39.438Z,1.43
2023-02-25T07:20:06.742Z,1.53
2023-02-25T07:22:32.927Z,1.67
2023-02-25T07:24:59.930Z,2.70
2023-02-25T07:27:26.583Z,2.83
2023-02-25T07:29:54.430Z,1.87
2023-02-25T07:32:23.338Z,1.43
2023-02-25T07:34:50.003Z,2.73
2023-02-25T07:37:16.239Z,2.20
2023-02-25T07:40:12.230Z,1.90
2023-02-25T07:42:40.498Z,1.40
2023-02-25T07:45:08.826Z,2.03
2023-02-25T07:47:36.036Z,2.73
2023-02-25T07:50:06.279Z,1.57
2023-02-25T07:52:32.824Z,2.67
2023-02-25T07:54:59.434Z,2.57
2023-02-25T07:57:28.450Z,1.30
2023-02-25T07:59:55.148Z,1.47
2023-02-25T08:02:23.041Z,2.97
2023-02-25T08:04:50.027Z,1.57
2023-02-25T08:07:16.774Z,1.77
2023-02-25T08:09:43.661Z,1.90
2023-02-25T08:12:10.720Z,1.50
2023-02-25T08:14:37.739Z,1.93
2023-02-25T08:17:04.158Z,3.73
2023-02-25T08:19:30.631Z,1.83
2023-02-25T08:21:56.832Z,2.23
2023-02-25T08:24:23.772Z,3.17
2023-02-25T08:26:50.043Z,3.07
2023-02-25T08:29:17.588Z,3.43
2023-02-25T08:31:44.243Z,3.53
2023-02-25T08:34:11.428Z,3.83
2023-02-25T08:36:37.749Z,3.03
2023-02-25T08:39:04.368Z,2.43
2023-02-25T08:41:31.396Z,1.87
2023-02-25T08:44:00.726Z,1.63
2023-02-25T08:46:30.047Z,2.33
2023-02-25T08:48:57.404Z,2.83
2023-02-25T08:51:33.127Z,2.87
2023-02-25T08:54:03.298Z,9.17
2023-02-25T08:56:29.991Z,6.60
2023-02-25T08:58:56.762Z,1.77
2023-02-25T09:01:23.851Z,3.97
2023-02-25T09:03:51.698Z,1.67
2023-02-25T09:06:24.296Z,1.37
2023-02-25T09:08:52.283Z,1.53
2023-02-25T09:11:19.662Z,0.93
2023-02-25T09:13:46.722Z,1.00
2023-02-25T09:16:16.601Z,1.00
2023-02-25T09:18:45.087Z,1.60
2023-02-25T09:21:12.661Z,1.53
2023-02-25T09:23:40.811Z,1.27
2023-02-25T09:26:08.209Z,1.47
2023-02-25T09:28:35.744Z,1.93
2023-02-25T09:31:02.018Z,1.57
2023-02-25T09:33:31.328Z,1.20
2023-02-25T09:36:14.844Z,1.03
2023-02-25T09:38:42.958Z,1.27
2023-02-25T09:41:24.922Z,1.17
2023-02-25T09:44:01.608Z,3.17
2023-02-25T09:46:30.231Z,1.60
2023-02-25T09:49:04.249Z,3.10
2023-02-25T09:51:38.260Z,0.70
2023-02-25T09:54:39.331Z,0.90
2023-02-25T09:57:07.459Z,1.57
2023-02-25T09:59:35.174Z,1.90
2023-02-25T10:02:36.296Z,1.23
2023-02-25T10:05:44.684Z,2.57
2023-02-25T10:08:37.177Z,0.90
2023-02-25T10:11:15.469Z,2.07
2023-02-25T10:14:00.361Z,2.20
2023-02-25T10:16:47.149Z,1.73
2023-02-25T10:19:28.644Z,1.80
2023-02-25T10:22:34.561Z,1.23
2023-02-25T10:25:11.345Z,1.03
2023-02-25T10:27:45.036Z,1.33
2023-02-25T10:30:22.902Z,2.23
2023-02-25T10:32:49.934Z,1.83
2023-02-25T10:35:31.467Z,0.93
2023-02-25T10:37:58.013Z,1.13
2023-02-25T10:40:28.519Z,1.30
2023-02-25T10:43:00.137Z,2.57
2023-02-25T10:45:29.789Z,0.80
2023-02-25T10:48:06.881Z,1.30
2023-02-25T10:50:45.021Z,1.33
2023-02-25T10:53:17.601Z,1.73
2023-02-25T10:55:43.840Z,1.87
2023-02-25T10:58:43.659Z,0.80
2023-02-25T11:01:14.575Z,1.93
2023-02-25T11:03:53.747Z,1.50
2023-02-25T11:06:35.297Z,1.53
2023-02-25T11:09:06.213Z,0.80
2023-02-25T11:11:51.666Z,1.10
2023-02-25T11:14:18.622Z,1.77
2023-02-25T11:16:45.327Z,1.30
2023-02-25T11:19:19.760Z,1.70
2023-02-25T11:21:47.166Z,1.33
2023-02-25T11:24:23.021Z,1.43
2023-02-25T11:26:51.620Z,1.90
2023-02-25T11:29:32.904Z,1.10
2023-02-25T11:32:20.934Z,1.67
2023-02-25T11:34:54.647Z,2.73
2023-02-25T11:37:36.147Z,3.03
2023-02-25T11:40:18.444Z,1.37
2023-02-25T11:43:00.509Z,1.53
2023-02-25T11:45:33.535Z,1.30
2023-02-25T11:48:15.497Z,1.90
2023-02-25T11:50:50.942Z,2.90
2023-02-25T11:53:35.007Z,1.70
2023-02-25T11:56:04.735Z,2.30
2023-02-25T11:58:56.110Z,2.20
2023-02-25T12:01:52.588Z,1.27
2023-02-25T12:04:21.951Z,1.57
2023-02-25T12:07:36.519Z,1.10
2023-02-25T12:10:40.442Z,0.80
2023-02-25T12:13:22.170Z,1.60
2023-02-25T12:16:08.597Z,2.73
2023-02-25T12:18:41.255Z,2.63
2023-02-25T12:21:32.642Z,3.20
2023-02-25T12:24:14.819Z,3.27
2023-02-25T12:27:07.321Z,2.37
2023-02-25T12:30:10.819Z,1.40
2023-02-25T12:33:02.596Z,1.53
2023-02-25T12:36:08.278Z,1.60
2023-02-25T12:39:24.180Z,1.30
2023-02-25T12:42:11.461Z,2.10
2023-02-25T12:44:56.927Z,1.17
2023-02-25T12:47:58.558Z,1.50
2023-02-25T12:50:42.994Z,2.47
2023-02-25T12:53:28.273Z,3.67
2023-02-25T12:56:32.430Z,2.20
2023-02-25T12:59:02.704Z,2.67
2023-02-25T13:01:37.468Z,1.27
2023-02-25T13:04:32.841Z,1.07
2023-02-25T13:07:33.602Z,2.37
2023-02-25T13:10:00.610Z,2.23
2023-02-25T13:13:13.117Z,2.20
2023-02-25T13:15:59.691Z,1.90
2023-02-25T13:18:38.184Z,1.50
2023-02-25T13:21:28.250Z,0.50
2023-02-25T13:24:33.160Z,1.70
2023-02-25T13:27:34.231Z,1.27
2023-02-25T13:30:15.837Z,1.13
2023-02-25T13:32:51.753Z,1.30
2023-02-25T13:35:30.657Z,1.00
2023-02-25T13:38:35.478Z,1.07
2023-02-25T13:41:07.802Z,1.20
2023-02-25T13:43:58.684Z,0.83
2023-02-25T13:47:02.247Z,2.57
2023-02-25T13:49:44.871Z,2.03
2023-02-25T13:52:36.714Z,1.57
2023-02-25T13:55:40.790Z,1.27
2023-02-25T13:58:41.173Z,2.33
2023-02-25T14:01:30.060Z,1.53
2023-02-25T14:03:56.398Z,1.60
2023-02-25T14:06:34.839Z,1.53
2023-02-25T14:09:08.946Z,1.70
2023-02-25T14:12:12.387Z,3.10
2023-02-25T14:14:39.365Z,1.87
2023-02-25T14:17:32.083Z,1.30
2023-02-25T14:20:34.335Z,1.60
2023-02-25T14:23:07.030Z,2.50
2023-02-25T14:26:10.195Z,3.20
2023-02-25T14:29:08.511Z,2.33
2023-02-25T14:32:13.492Z,2.53
2023-02-25T14:34:58.921Z,1.83
2023-02-25T14:37:31.056Z,1.97
2023-02-25T14:40:19.743Z,2.07
2023-02-25T14:43:23.682Z,2.57
2023-02-25T14:45:58.048Z,3.03
2023-02-25T14:48:32.372Z,2.27
2023-02-25T14:51:26.054Z,2.53
2023-02-25T14:54:14.396Z,2.73
2023-02-25T14:57:08.816Z,2.67
2023-02-25T15:00:00.541Z,3.53
2023-02-25T15:02:27.382Z,2.43
2023-02-25T15:05:08.958Z,3.13
2023-02-25T15:07:40.690Z,1.30
2023-02-25T15:10:31.542Z,1.17
2023-02-25T15:13:13.255Z,1.83
2023-02-25T15:16:10.279Z,1.13
2023-02-25T15:18:59.919Z,1.77
2023-02-25T15:21:41.712Z,2.17
2023-02-25T15:24:30.727Z,1.17
2023-02-25T15:26:57.704Z,1.50
2023-02-25T15:29:33.554Z,1.83
2023-02-25T15:32:29.579Z,1.93
2023-02-25T15:35:11.787Z,1.40
2023-02-25T15:37:53.042Z,19.17
2023-02-25T15:40:21.270Z,2.57
2023-02-25T15:42:53.429Z,3.73
2023-02-25T15:45:27.199Z,2.43
2023-02-25T15:48:20.638Z,10.17
2023-02-25T15:50:47.343Z,3.50
2023-02-25T15:53:20.442Z,2.80
2023-02-25T15:55:51.340Z,1.17
2023-02-25T15:58:23.820Z,2.07
2023-02-25T16:01:05.779Z,2.63
2023-02-25T16:03:35.253Z,2.00
2023-02-25T16:06:05.106Z,1.90
2023-02-25T16:08:49.520Z,2.73
2023-02-25T16:11:48.749Z,2.20
2023-02-25T16:14:18.641Z,1.70
2023-02-25T16:16:57.403Z,2.50
2023-02-25T16:19:32.925Z,1.67
2023-02-25T16:22:02.992Z,2.93
2023-02-25T16:24:30.109Z,3.47
2023-02-25T16:27:04.165Z,4.87
2023-02-25T16:30:02.734Z,3.80
2023-02-25T16:33:00.286Z,2.33
2023-02-25T16:35:30.140Z,3.40
2023-02-25T16:38:17.337Z,2.43
2023-02-25T16:40:45.044Z,5.80
2023-02-25T16:43:35.137Z,7.30
2023-02-25T16:46:09.956Z,6.77
2023-02-25T16:48:45.329Z,5.37
2023-02-25T16:51:26.525Z,3.83
2023-02-25T16:53:57.542Z,4.43
2023-02-25T16:56:28.096Z,5.90
2023-02-25T16:59:03.548Z,6.90
2023-02-25T17:01:32.463Z,7.83
2023-02-25T17:04:05.828Z,3.47
2023-02-25T17:06:32.165Z,6.57
2023-02-25T17:08:59.766Z,4.00
2023-02-25T17:11:26.437Z,6.63
2023-02-25T17:13:55.512Z,4.80
2023-02-25T17:16:27.813Z,4.93
2023-02-25T17:18:58.120Z,4.40
2023-02-25T17:21:34.754Z,4.13
2023-02-25T17:24:04.391Z,2.90
2023-02-25T17:26:31.240Z,3.40
2023-02-25T17:29:00.657Z,4.30
2023-02-25T17:31:29.803Z,5.10
2023-02-25T17:34:00.198Z,5.87
2023-02-25T17:36:26.556Z,2.53
2023-02-25T17:39:00.089Z,3.20
2023-02-25T17:41:27.029Z,5.90
2023-02-25T17:43:53.994Z,7.27
2023-02-25T17:46:29.310Z,5.13
2023-02-25T17:49:02.264Z,3.70
2023-02-25T17:51:38.955Z,6.70
2023-02-25T17:54:08.529Z,3.80
2023-02-25T17:56:36.060Z,2.83
2023-02-25T17:59:04.483Z,2.80
2023-02-25T18:01:46.409Z,2.60
2023-02-25T18:04:34.523Z,2.80
2023-02-25T18:07:27.697Z,5.57
2023-02-25T18:09:56.080Z,6.33
2023-02-25T18:12:28.148Z,3.40
2023-02-25T18:14:58.088Z,3.70
2023-02-25T18:17:34.174Z,3.77
2023-02-25T18:20:05.009Z,5.63
2023-02-25T18:22:40.711Z,4.03
2023-02-25T18:25:27.559Z,4.10
2023-02-25T18:27:54.524Z,4.63
2023-02-25T18:30:24.116Z,2.53
2023-02-25T18:32:51.328Z,3.20
2023-02-25T18:35:18.435Z,4.53
2023-02-25T18:37:47.066Z,4.20
2023-02-25T18:40:35.851Z,5.43
2023-02-25T18:43:03.211Z,3.20
2023-02-25T18:45:32.151Z,3.70
2023-02-25T18:48:02.054Z,3.43
2023-02-25T18:50:30.438Z,4.27
2023-02-25T18:52:57.484Z,2.80
2023-02-25T18:55:30.085Z,4.40
2023-02-25T18:57:58.018Z,6.57
2023-02-25T19:00:27.501Z,6.13
2023-02-25T19:03:02.124Z,4.53
2023-02-25T19:05:29.975Z,5.83
2023-02-25T19:07:56.898Z,5.00
2023-02-25T19:10:29.850Z,4.17
2023-02-25T19:13:13.308Z,3.23
2023-02-25T19:15:40.070Z,5.33
2023-02-25T19:18:12.671Z,4.27
2023-02-25T19:20:42.211Z,5.30
2023-02-25T19:23:11.538Z,2.17
2023-02-25T19:25:39.957Z,6.10
2023-02-25T19:28:07.592Z,6.57
2023-02-25T19:30:37.779Z,5.97
2023-02-25T19:33:05.156Z,6.03
2023-02-25T19:35:34.973Z,3.37
2023-02-25T19:38:02.707Z,5.43
2023-02-25T19:40:29.581Z,2.40
2023-02-25T19:42:57.358Z,5.67
2023-02-25T19:45:25.435Z,2.67
2023-02-25T19:47:52.944Z,6.17
2023-02-25T19:50:21.879Z,5.17
2023-02-25T19:52:48.437Z,4.47
2023-02-25T19:55:15.540Z,5.43
2023-02-25T19:57:42.669Z,3.23
2023-02-25T20:00:16.088Z,3.77
2023-02-25T20:02:42.721Z,3.63
2023-02-25T20:05:12.446Z,2.73
2023-02-25T20:07:39.168Z,3.10
2023-02-25T20:10:10.542Z,2.80
2023-02-25T20:12:42.764Z,3.70
2023-02-25T20:15:11.089Z,3.53
2023-02-25T20:17:41.839Z,3.13
2023-02-25T20:20:11.117Z,3.20
2023-02-25T20:22:38.609Z,6.13
2023-02-25T20:25:06.826Z,3.20
2023-02-25T20:27:36.244Z,3.00
2023-02-25T20:30:04.332Z,5.70
2023-02-25T20:32:30.850Z,3.80
2023-02-25T20:34:57.973Z,2.60
2023-02-25T20:37:30.746Z,3.63
2023-02-25T20:39:59.067Z,4.70
2023-02-25T20:42:30.653Z,3.17
2023-02-25T20:45:02.110Z,5.57
2023-02-25T20:47:35.453Z,4.63
2023-02-25T20:50:03.899Z,3.97
2023-02-25T20:52:30.882Z,5.70
2023-02-25T20:54:57.915Z,2.03
2023-02-25T20:57:26.103Z,3.87
2023-02-25T20:59:53.402Z,4.90
2023-02-25T21:02:20.485Z,1.77
2023-02-25T21:04:47.208Z,2.57
2023-02-25T21:07:13.852Z,4.77
2023-02-25T21:09:40.996Z,4.07
2023-02-25T21:12:07.902Z,2.87
2023-02-25T21:14:35.102Z,4.57
2023-02-25T21:17:03.185Z,2.43
2023-02-25T21:19:29.852Z,2.90
2023-02-25T21:21:56.431Z,5.17
2023-02-25T21:24:23.361Z,2.63
2023-02-25T21:26:49.864Z,5.50
2023-02-25T21:29:16.609Z,3.73
2023-02-25T21:31:43.547Z,3.50
2023-02-25T21:34:13.226Z,4.77
2023-02-25T21:36:40.638Z,2.60
2023-02-25T21:39:11.880Z,3.40
2023-02-25T21:41:42.712Z,3.30
2023-02-25T21:44:12.455Z,3.70
2023-02-25T21:46:39.793Z,4.53
2023-02-25T21:49:06.860Z,3.03
2023-02-25T21:51:33.390Z,3.93
2023-02-25T21:54:00.814Z,2.27
2023-02-25T21:56:29.099Z,4.33
2023-02-25T21:58:58.016Z,1.77
2023-02-25T22:01:27.726Z,4.33
2023-02-25T22:03:55.203Z,2.93
2023-02-25T22:06:23.278Z,1.70
2023-02-25T22:08:51.425Z,2.57
2023-02-25T22:11:24.480Z,2.60
2023-02-25T22:13:52.618Z,3.37
2023-02-25T22:16:20.367Z,3.60
2023-02-25T22:18:46.955Z,2.47
2023-02-25T22:21:19.953Z,2.20
2023-02-25T22:23:48.392Z,2.43
2023-02-25T22:26:17.398Z,2.60
2023-02-25T22:28:44.852Z,2.83
2023-02-25T22:31:17.094Z,2.93
2023-02-25T22:33:44.668Z,4.17
2023-02-25T22:36:12.579Z,3.67
2023-02-25T22:38:41.380Z,2.57
2023-02-25T22:41:23.884Z,2.53
2023-02-25T22:43:51.355Z,4.07
2023-02-25T22:46:20.636Z,2.97
2023-02-25T22:48:49.046Z,3.53
2023-02-25T22:51:28.141Z,2.13
2023-02-25T22:53:55.635Z,1.90
2023-02-25T22:56:22.937Z,3.50
2023-02-25T22:58:50.595Z,3.60
2023-02-25T23:01:19.606Z,4.00
2023-02-25T23:03:47.062Z,3.53
2023-02-25T23:06:15.506Z,2.63
2023-02-25T23:08:43.283Z,1.93
2023-02-25T23:11:32.014Z,3.60
2023-02-25T23:14:01.017Z,1.53
2023-02-25T23:16:28.870Z,1.90
2023-02-25T23:19:00.797Z,4.93
2023-02-25T23:21:28.665Z,2.50
2023-02-25T23:23:57.262Z,3.23
2023-02-25T23:26:30.254Z,2.77
2023-02-25T23:28:59.188Z,2.60
2023-02-25T23:31:29.099Z,4.03
2023-02-25T23:34:01.626Z,2.83
2023-02-25T23:36:28.488Z,2.90
2023-02-25T23:38:57.325Z,5.30
2023-02-25T23:41:25.415Z,3.43
2023-02-25T23:43:58.017Z,3.07
2023-02-25T23:46:26.641Z,4.77
2023-02-25T23:48:55.129Z,3.60
2023-02-25T23:51:21.632Z,2.53
2023-02-25T23:53:52.007Z,3.17
2023-02-25T23:56:18.209Z,3.50
2023-02-25T23:58:49.291Z,2.27
